sensor_id;sensor_type;location;lat;lon;timestamp;P1;durP1;ratioP1;P2;durP2;ratioP2
70228;SDS011;57617;51.988;5.854;2023-03-14T00:01:31;11.65;;;2.72;;
70228;SDS011;57617;51.988;5.854;2023-03-14T00:03:57;5.53;;;2.25;;
70228;SDS011;57617;51.988;5.854;2023-03-14T00:06:22;9.93;;;2.60;;
70228;SDS011;57617;51.988;5.854;2023-03-14T00:08:48;8.70;;;2.38;;
70228;SDS011;57617;51.988;5.854;2023-03-14T00:11:15;8.30;;;3.00;;
70228;SDS011;57617;51.988;5.854;2023-03-14T00:13:42;9.30;;;2.92;;
70228;SDS011;57617;51.988;5.854;2023-03-14T00:16:09;13.38;;;3.20;;
70228;SDS011;57617;51.988;5.854;2023-03-14T00:18:36;13.27;;;2.80;;
70228;SDS011;57617;51.988;5.854;2023-03-14T00:21:02;10.43;;;2.75;;
70228;SDS011;57617;51.988;5.854;2023-03-14T00:23:29;12.88;;;2.80;;
70228;SDS011;57617;51.988;5.854;2023-03-14T00:25:59;8.85;;;2.45;;
70228;SDS011;57617;51.988;5.854;2023-03-14T00:28:25;10.65;;;2.65;;
70228;SDS011;57617;51.988;5.854;2023-03-14T00:30:51;11.75;;;2.83;;
70228;SDS011;57617;51.988;5.854;2023-03-14T00:33:16;12.23;;;2.90;;
70228;SDS011;57617;51.988;5.854;2023-03-14T00:35:42;9.02;;;2.67;;
70228;SDS011;57617;51.988;5.854;2023-03-14T00:38:07;9.35;;;2.30;;
70228;SDS011;57617;51.988;5.854;2023-03-14T00:40:32;7.05;;;2.00;;
70228;SDS011;57617;51.988;5.854;2023-03-14T00:42:57;8.98;;;2.13;;
70228;SDS011;57617;51.988;5.854;2023-03-14T00:45:23;6.63;;;1.83;;
70228;SDS011;57617;51.988;5.854;2023-03-14T00:47:48;4.80;;;1.30;;
70228;SDS011;57617;51.988;5.854;2023-03-14T00:50:13;7.97;;;1.63;;
70228;SDS011;57617;51.988;5.854;2023-03-14T00:52:39;5.70;;;1.33;;
70228;SDS011;57617;51.988;5.854;2023-03-14T00:55:04;11.32;;;1.52;;
70228;SDS011;57617;51.988;5.854;2023-03-14T00:57:30;8.02;;;1.92;;
70228;SDS011;57617;51.988;5.854;2023-03-14T00:59:55;4.38;;;1.38;;
70228;SDS011;57617;51.988;5.854;2023-03-14T01:02:20;9.00;;;1.50;;
70228;SDS011;57617;51.988;5.854;2023-03-14T01:04:47;6.45;;;1.60;;
70228;SDS011;57617;51.988;5.854;2023-03-14T01:07:13;5.38;;;1.50;;
70228;SDS011;57617;51.988;5.854;2023-03-14T01:09:38;9.35;;;2.08;;
70228;SDS011;57617;51.988;5.854;2023-03-14T01:12:04;8.65;;;1.85;;
70228;SDS011;57617;51.988;5.854;2023-03-14T01:14:29;8.95;;;1.70;;
70228;SDS011;57617;51.988;5.854;2023-03-14T01:16:54;7.30;;;1.80;;
70228;SDS011;57617;51.988;5.854;2023-03-14T01:19:25;8.68;;;1.55;;
70228;SDS011;57617;51.988;5.854;2023-03-14T01:21:51;7.93;;;1.60;;
70228;SDS011;57617;51.988;5.854;2023-03-14T01:24:16;8.90;;;2.47;;
70228;SDS011;57617;51.988;5.854;2023-03-14T01:26:41;10.63;;;1.80;;
70228;SDS011;57617;51.988;5.854;2023-03-14T01:29:06;8.65;;;1.92;;
70228;SDS011;57617;51.988;5.854;2023-03-14T01:31:32;8.60;;;1.65;;
70228;SDS011;57617;51.988;5.854;2023-03-14T01:33:57;11.43;;;1.90;;
70228;SDS011;57617;51.988;5.854;2023-03-14T01:36:22;7.60;;;1.85;;
70228;SDS011;57617;51.988;5.854;2023-03-14T01:38:48;9.88;;;1.75;;
70228;SDS011;57617;51.988;5.854;2023-03-14T01:41:15;9.70;;;1.90;;
70228;SDS011;57617;51.988;5.854;2023-03-14T01:43:42;4.40;;;1.90;;
70228;SDS011;57617;51.988;5.854;2023-03-14T01:51:40;9.55;;;1.77;;
70228;SDS011;57617;51.988;5.854;2023-03-14T01:56:46;7.95;;;2.08;;
70228;SDS011;57617;51.988;5.854;2023-03-14T01:59:15;9.27;;;2.55;;
70228;SDS011;57617;51.988;5.854;2023-03-14T02:01:41;8.10;;;2.15;;
70228;SDS011;57617;51.988;5.854;2023-03-14T02:04:11;13.52;;;2.95;;
70228;SDS011;57617;51.988;5.854;2023-03-14T02:09:20;8.18;;;2.20;;
70228;SDS011;57617;51.988;5.854;2023-03-14T02:11:46;6.63;;;2.20;;
70228;SDS011;57617;51.988;5.854;2023-03-14T02:14:25;16.13;;;2.80;;
70228;SDS011;57617;51.988;5.854;2023-03-14T02:16:55;19.00;;;2.60;;
70228;SDS011;57617;51.988;5.854;2023-03-14T02:19:23;11.00;;;2.60;;
70228;SDS011;57617;51.988;5.854;2023-03-14T02:22:08;14.70;;;3.00;;
70228;SDS011;57617;51.988;5.854;2023-03-14T02:24:41;10.38;;;2.70;;
70228;SDS011;57617;51.988;5.854;2023-03-14T02:27:24;9.43;;;2.25;;
70228;SDS011;57617;51.988;5.854;2023-03-14T02:29:57;13.57;;;2.10;;
70228;SDS011;57617;51.988;5.854;2023-03-14T02:32:26;11.63;;;2.20;;
70228;SDS011;57617;51.988;5.854;2023-03-14T02:34:55;9.63;;;2.20;;
70228;SDS011;57617;51.988;5.854;2023-03-14T02:37:24;8.18;;;2.35;;
70228;SDS011;57617;51.988;5.854;2023-03-14T02:39:55;7.05;;;2.17;;
70228;SDS011;57617;51.988;5.854;2023-03-14T02:42:21;11.23;;;1.95;;
70228;SDS011;57617;51.988;5.854;2023-03-14T02:47:30;9.95;;;1.92;;
70228;SDS011;57617;51.988;5.854;2023-03-14T02:49:58;9.90;;;1.95;;
70228;SDS011;57617;51.988;5.854;2023-03-14T02:52:26;13.95;;;2.30;;
70228;SDS011;57617;51.988;5.854;2023-03-14T02:54:52;11.63;;;2.05;;
70228;SDS011;57617;51.988;5.854;2023-03-14T02:57:17;11.93;;;1.80;;
70228;SDS011;57617;51.988;5.854;2023-03-14T02:59:42;11.02;;;1.90;;
70228;SDS011;57617;51.988;5.854;2023-03-14T03:02:07;8.02;;;1.65;;
70228;SDS011;57617;51.988;5.854;2023-03-14T03:04:33;10.18;;;1.60;;
70228;SDS011;57617;51.988;5.854;2023-03-14T03:06:58;11.13;;;1.90;;
70228;SDS011;57617;51.988;5.854;2023-03-14T03:09:23;8.57;;;1.80;;
70228;SDS011;57617;51.988;5.854;2023-03-14T03:11:49;7.13;;;1.48;;
70228;SDS011;57617;51.988;5.854;2023-03-14T03:14:14;12.52;;;1.80;;
70228;SDS011;57617;51.988;5.854;2023-03-14T03:16:39;9.52;;;1.58;;
70228;SDS011;57617;51.988;5.854;2023-03-14T03:19:04;10.32;;;1.85;;
70228;SDS011;57617;51.988;5.854;2023-03-14T03:21:30;11.13;;;1.80;;
70228;SDS011;57617;51.988;5.854;2023-03-14T03:23:55;7.80;;;1.45;;
70228;SDS011;57617;51.988;5.854;2023-03-14T03:26:20;7.22;;;1.60;;
70228;SDS011;57617;51.988;5.854;2023-03-14T03:28:45;8.68;;;1.60;;
70228;SDS011;57617;51.988;5.854;2023-03-14T03:31:11;12.85;;;1.80;;
70228;SDS011;57617;51.988;5.854;2023-03-14T03:33:37;7.82;;;1.80;;
70228;SDS011;57617;51.988;5.854;2023-03-14T03:36:03;11.65;;;2.22;;
70228;SDS011;57617;51.988;5.854;2023-03-14T03:38:28;9.13;;;1.73;;
70228;SDS011;57617;51.988;5.854;2023-03-14T03:40:53;8.82;;;1.75;;
70228;SDS011;57617;51.988;5.854;2023-03-14T03:43:19;10.77;;;1.60;;
70228;SDS011;57617;51.988;5.854;2023-03-14T03:45:44;11.02;;;1.60;;
70228;SDS011;57617;51.988;5.854;2023-03-14T03:48:09;10.93;;;2.20;;
70228;SDS011;57617;51.988;5.854;2023-03-14T03:50:34;9.93;;;2.05;;
70228;SDS011;57617;51.988;5.854;2023-03-14T03:53:00;12.75;;;2.25;;
70228;SDS011;57617;51.988;5.854;2023-03-14T03:55:25;9.48;;;2.15;;
70228;SDS011;57617;51.988;5.854;2023-03-14T03:57:52;10.90;;;2.10;;
70228;SDS011;57617;51.988;5.854;2023-03-14T04:00:18;6.80;;;1.88;;
70228;SDS011;57617;51.988;5.854;2023-03-14T04:02:43;11.25;;;2.25;;
70228;SDS011;57617;51.988;5.854;2023-03-14T04:05:09;10.10;;;2.20;;
70228;SDS011;57617;51.988;5.854;2023-03-14T04:07:34;9.57;;;2.33;;
70228;SDS011;57617;51.988;5.854;2023-03-14T04:09:59;16.45;;;2.92;;
70228;SDS011;57617;51.988;5.854;2023-03-14T04:12:25;12.65;;;2.40;;
70228;SDS011;57617;51.988;5.854;2023-03-14T04:14:50;12.20;;;2.53;;
70228;SDS011;57617;51.988;5.854;2023-03-14T04:17:15;11.88;;;2.50;;
70228;SDS011;57617;51.988;5.854;2023-03-14T04:19:40;11.73;;;2.45;;
70228;SDS011;57617;51.988;5.854;2023-03-14T04:22:07;13.45;;;2.30;;
70228;SDS011;57617;51.988;5.854;2023-03-14T04:24:32;9.73;;;2.35;;
70228;SDS011;57617;51.988;5.854;2023-03-14T04:26:57;13.15;;;2.30;;
70228;SDS011;57617;51.988;5.854;2023-03-14T04:29:23;9.07;;;2.10;;
70228;SDS011;57617;51.988;5.854;2023-03-14T04:31:48;12.00;;;2.58;;
70228;SDS011;57617;51.988;5.854;2023-03-14T04:34:13;9.68;;;1.92;;
70228;SDS011;57617;51.988;5.854;2023-03-14T04:36:38;12.15;;;2.20;;
70228;SDS011;57617;51.988;5.854;2023-03-14T04:39:04;15.13;;;2.00;;
70228;SDS011;57617;51.988;5.854;2023-03-14T04:41:29;10.40;;;2.15;;
70228;SDS011;57617;51.988;5.854;2023-03-14T04:43:54;11.07;;;1.90;;
70228;SDS011;57617;51.988;5.854;2023-03-14T04:46:20;12.20;;;2.20;;
70228;SDS011;57617;51.988;5.854;2023-03-14T04:48:45;12.15;;;1.85;;
70228;SDS011;57617;51.988;5.854;2023-03-14T04:51:10;10.88;;;1.75;;
70228;SDS011;57617;51.988;5.854;2023-03-14T04:53:35;15.07;;;1.90;;
70228;SDS011;57617;51.988;5.854;2023-03-14T04:56:01;7.10;;;1.40;;
70228;SDS011;57617;51.988;5.854;2023-03-14T04:58:27;5.65;;;1.63;;
70228;SDS011;57617;51.988;5.854;2023-03-14T05:00:52;11.98;;;1.70;;
70228;SDS011;57617;51.988;5.854;2023-03-14T05:03:18;5.80;;;1.38;;
70228;SDS011;57617;51.988;5.854;2023-03-14T05:05:44;8.60;;;1.55;;
70228;SDS011;57617;51.988;5.854;2023-03-14T05:08:10;14.02;;;2.03;;
70228;SDS011;57617;51.988;5.854;2023-03-14T05:10:35;8.10;;;1.42;;
70228;SDS011;57617;51.988;5.854;2023-03-14T05:13:01;7.75;;;1.23;;
70228;SDS011;57617;51.988;5.854;2023-03-14T05:15:26;11.77;;;1.33;;
70228;SDS011;57617;51.988;5.854;2023-03-14T05:17:52;11.25;;;1.20;;
70228;SDS011;57617;51.988;5.854;2023-03-14T05:20:19;8.02;;;1.17;;
70228;SDS011;57617;51.988;5.854;2023-03-14T05:22:44;6.57;;;1.40;;
70228;SDS011;57617;51.988;5.854;2023-03-14T05:25:09;8.07;;;1.27;;
70228;SDS011;57617;51.988;5.854;2023-03-14T05:27:35;8.18;;;1.20;;
70228;SDS011;57617;51.988;5.854;2023-03-14T05:30:00;6.93;;;1.30;;
70228;SDS011;57617;51.988;5.854;2023-03-14T05:32:27;6.45;;;0.93;;
70228;SDS011;57617;51.988;5.854;2023-03-14T05:34:52;5.28;;;1.23;;
70228;SDS011;57617;51.988;5.854;2023-03-14T05:37:18;6.40;;;1.20;;
70228;SDS011;57617;51.988;5.854;2023-03-14T05:39:43;8.45;;;1.17;;
70228;SDS011;57617;51.988;5.854;2023-03-14T05:42:09;5.32;;;1.10;;
70228;SDS011;57617;51.988;5.854;2023-03-14T05:44:34;6.03;;;1.02;;
70228;SDS011;57617;51.988;5.854;2023-03-14T05:46:59;5.70;;;1.17;;
70228;SDS011;57617;51.988;5.854;2023-03-14T05:49:24;3.95;;;0.90;;
70228;SDS011;57617;51.988;5.854;2023-03-14T05:51:50;7.72;;;1.38;;
70228;SDS011;57617;51.988;5.854;2023-03-14T05:54:16;5.85;;;1.25;;
70228;SDS011;57617;51.988;5.854;2023-03-14T05:56:41;6.07;;;1.48;;
70228;SDS011;57617;51.988;5.854;2023-03-14T05:59:06;14.35;;;1.77;;
70228;SDS011;57617;51.988;5.854;2023-03-14T06:01:34;6.22;;;1.20;;
70228;SDS011;57617;51.988;5.854;2023-03-14T06:03:59;8.63;;;1.48;;
70228;SDS011;57617;51.988;5.854;2023-03-14T06:06:24;6.13;;;1.30;;
70228;SDS011;57617;51.988;5.854;2023-03-14T06:08:50;7.07;;;1.70;;
70228;SDS011;57617;51.988;5.854;2023-03-14T06:11:15;8.20;;;1.55;;
70228;SDS011;57617;51.988;5.854;2023-03-14T06:13:40;6.80;;;1.35;;
70228;SDS011;57617;51.988;5.854;2023-03-14T06:16:06;4.78;;;1.58;;
70228;SDS011;57617;51.988;5.854;2023-03-14T06:18:31;7.78;;;1.90;;
70228;SDS011;57617;51.988;5.854;2023-03-14T06:20:57;5.28;;;1.58;;
70228;SDS011;57617;51.988;5.854;2023-03-14T06:23:22;6.35;;;1.70;;
70228;SDS011;57617;51.988;5.854;2023-03-14T06:25:47;7.30;;;1.95;;
70228;SDS011;57617;51.988;5.854;2023-03-14T06:28:13;8.32;;;1.75;;
70228;SDS011;57617;51.988;5.854;2023-03-14T06:30:38;6.03;;;2.00;;
70228;SDS011;57617;51.988;5.854;2023-03-14T06:33:03;6.53;;;2.22;;
70228;SDS011;57617;51.988;5.854;2023-03-14T06:35:29;8.07;;;2.28;;
70228;SDS011;57617;51.988;5.854;2023-03-14T06:37:54;8.38;;;2.92;;
70228;SDS011;57617;51.988;5.854;2023-03-14T06:40:19;10.73;;;2.38;;
70228;SDS011;57617;51.988;5.854;2023-03-14T06:42:45;7.45;;;2.38;;
70228;SDS011;57617;51.988;5.854;2023-03-14T06:45:10;7.10;;;2.85;;
70228;SDS011;57617;51.988;5.854;2023-03-14T06:47:35;7.18;;;2.60;;
70228;SDS011;57617;51.988;5.854;2023-03-14T06:50:01;8.00;;;2.90;;
70228;SDS011;57617;51.988;5.854;2023-03-14T06:52:26;9.10;;;2.85;;
70228;SDS011;57617;51.988;5.854;2023-03-14T06:54:51;6.78;;;2.55;;
70228;SDS011;57617;51.988;5.854;2023-03-14T06:57:16;7.00;;;2.83;;
70228;SDS011;57617;51.988;5.854;2023-03-14T06:59:42;6.30;;;2.75;;
70228;SDS011;57617;51.988;5.854;2023-03-14T07:02:09;7.72;;;3.10;;
70228;SDS011;57617;51.988;5.854;2023-03-14T07:04:36;8.82;;;3.22;;
70228;SDS011;57617;51.988;5.854;2023-03-14T07:07:01;8.07;;;3.08;;
70228;SDS011;57617;51.988;5.854;2023-03-14T07:09:27;8.57;;;3.10;;
70228;SDS011;57617;51.988;5.854;2023-03-14T07:11:52;7.10;;;3.25;;
70228;SDS011;57617;51.988;5.854;2023-03-14T07:14:17;9.02;;;3.60;;
70228;SDS011;57617;51.988;5.854;2023-03-14T07:16:42;7.30;;;3.28;;
70228;SDS011;57617;51.988;5.854;2023-03-14T07:19:08;8.10;;;3.78;;
70228;SDS011;57617;51.988;5.854;2023-03-14T07:21:33;11.38;;;3.80;;
70228;SDS011;57617;51.988;5.854;2023-03-14T07:23:59;10.20;;;3.42;;
70228;SDS011;57617;51.988;5.854;2023-03-14T07:26:25;13.20;;;3.30;;
70228;SDS011;57617;51.988;5.854;2023-03-14T07:28:50;6.18;;;2.92;;
70228;SDS011;57617;51.988;5.854;2023-03-14T07:31:15;9.65;;;2.90;;
70228;SDS011;57617;51.988;5.854;2023-03-14T07:33:40;5.30;;;2.60;;
70228;SDS011;57617;51.988;5.854;2023-03-14T07:36:06;5.43;;;2.80;;
70228;SDS011;57617;51.988;5.854;2023-03-14T07:38:32;4.97;;;2.30;;
70228;SDS011;57617;51.988;5.854;2023-03-14T07:40:58;3.92;;;1.35;;
70228;SDS011;57617;51.988;5.854;2023-03-14T07:43:27;2.97;;;1.30;;
70228;SDS011;57617;51.988;5.854;2023-03-14T07:45:53;4.13;;;1.67;;
70228;SDS011;57617;51.988;5.854;2023-03-14T07:48:18;3.67;;;1.48;;
70228;SDS011;57617;51.988;5.854;2023-03-14T07:50:47;6.40;;;1.38;;
70228;SDS011;57617;51.988;5.854;2023-03-14T07:53:13;2.72;;;1.20;;
70228;SDS011;57617;51.988;5.854;2023-03-14T07:55:39;3.03;;;0.90;;
70228;SDS011;57617;51.988;5.854;2023-03-14T07:58:04;4.07;;;1.00;;
70228;SDS011;57617;51.988;5.854;2023-03-14T08:00:30;1.75;;;0.63;;
70228;SDS011;57617;51.988;5.854;2023-03-14T08:02:55;3.40;;;1.00;;
70228;SDS011;57617;51.988;5.854;2023-03-14T08:05:20;5.85;;;0.90;;
70228;SDS011;57617;51.988;5.854;2023-03-14T08:07:45;3.08;;;1.30;;
70228;SDS011;57617;51.988;5.854;2023-03-14T08:10:11;2.83;;;0.88;;
70228;SDS011;57617;51.988;5.854;2023-03-14T08:12:40;4.22;;;0.80;;
70228;SDS011;57617;51.988;5.854;2023-03-14T08:15:06;1.70;;;0.60;;
70228;SDS011;57617;51.988;5.854;2023-03-14T08:17:31;1.60;;;0.70;;
70228;SDS011;57617;51.988;5.854;2023-03-14T08:19:57;2.57;;;1.00;;
70228;SDS011;57617;51.988;5.854;2023-03-14T08:22:23;2.85;;;0.75;;
70228;SDS011;57617;51.988;5.854;2023-03-14T08:24:48;2.00;;;0.93;;
70228;SDS011;57617;51.988;5.854;2023-03-14T08:27:13;2.00;;;0.80;;
70228;SDS011;57617;51.988;5.854;2023-03-14T08:29:39;2.95;;;1.08;;
70228;SDS011;57617;51.988;5.854;2023-03-14T08:32:06;2.30;;;0.75;;
70228;SDS011;57617;51.988;5.854;2023-03-14T08:34:32;1.83;;;0.80;;
70228;SDS011;57617;51.988;5.854;2023-03-14T08:36:58;5.15;;;0.95;;
70228;SDS011;57617;51.988;5.854;2023-03-14T08:39:23;3.10;;;0.70;;
70228;SDS011;57617;51.988;5.854;2023-03-14T08:41:49;4.53;;;0.60;;
70228;SDS011;57617;51.988;5.854;2023-03-14T08:44:14;3.17;;;0.60;;
70228;SDS011;57617;51.988;5.854;2023-03-14T08:46:40;5.22;;;0.50;;
70228;SDS011;57617;51.988;5.854;2023-03-14T08:49:05;4.88;;;0.88;;
70228;SDS011;57617;51.988;5.854;2023-03-14T08:51:30;6.45;;;0.73;;
70228;SDS011;57617;51.988;5.854;2023-03-14T08:53:56;6.18;;;0.98;;
70228;SDS011;57617;51.988;5.854;2023-03-14T08:56:21;4.03;;;0.80;;
70228;SDS011;57617;51.988;5.854;2023-03-14T08:58:46;3.80;;;0.82;;
70228;SDS011;57617;51.988;5.854;2023-03-14T09:01:11;6.18;;;0.90;;
70228;SDS011;57617;51.988;5.854;2023-03-14T09:03:37;7.88;;;1.10;;
70228;SDS011;57617;51.988;5.854;2023-03-14T09:06:09;6.22;;;0.80;;
70228;SDS011;57617;51.988;5.854;2023-03-14T09:08:35;5.22;;;0.90;;
70228;SDS011;57617;51.988;5.854;2023-03-14T09:11:01;7.45;;;1.08;;
70228;SDS011;57617;51.988;5.854;2023-03-14T09:13:27;4.10;;;0.80;;
70228;SDS011;57617;51.988;5.854;2023-03-14T09:15:55;2.10;;;0.50;;
70228;SDS011;57617;51.988;5.854;2023-03-14T09:18:21;7.15;;;0.88;;
70228;SDS011;57617;51.988;5.854;2023-03-14T09:20:47;1.98;;;0.45;;
70228;SDS011;57617;51.988;5.854;2023-03-14T09:23:13;3.75;;;0.68;;
70228;SDS011;57617;51.988;5.854;2023-03-14T09:25:38;2.15;;;0.50;;
70228;SDS011;57617;51.988;5.854;2023-03-14T09:28:04;6.72;;;0.60;;
70228;SDS011;57617;51.988;5.854;2023-03-14T09:30:30;2.75;;;0.55;;
70228;SDS011;57617;51.988;5.854;2023-03-14T09:32:55;3.20;;;0.60;;
70228;SDS011;57617;51.988;5.854;2023-03-14T09:35:22;10.05;;;0.65;;
70228;SDS011;57617;51.988;5.854;2023-03-14T09:37:47;2.60;;;0.30;;
70228;SDS011;57617;51.988;5.854;2023-03-14T09:40:13;2.47;;;0.52;;
70228;SDS011;57617;51.988;5.854;2023-03-14T09:42:40;4.57;;;0.43;;
70228;SDS011;57617;51.988;5.854;2023-03-14T09:45:09;5.38;;;0.40;;
70228;SDS011;57617;51.988;5.854;2023-03-14T09:47:39;3.60;;;0.73;;
70228;SDS011;57617;51.988;5.854;2023-03-14T09:50:09;2.25;;;0.50;;
70228;SDS011;57617;51.988;5.854;2023-03-14T09:52:39;3.38;;;0.60;;
70228;SDS011;57617;51.988;5.854;2023-03-14T09:55:09;3.45;;;0.57;;
70228;SDS011;57617;51.988;5.854;2023-03-14T09:57:38;6.03;;;0.63;;
70228;SDS011;57617;51.988;5.854;2023-03-14T10:00:19;3.03;;;0.73;;
70228;SDS011;57617;51.988;5.854;2023-03-14T10:02:57;4.03;;;0.60;;
70228;SDS011;57617;51.988;5.854;2023-03-14T10:05:37;5.82;;;0.60;;
70228;SDS011;57617;51.988;5.854;2023-03-14T10:08:03;4.40;;;0.60;;
70228;SDS011;57617;51.988;5.854;2023-03-14T10:10:30;3.85;;;0.65;;
70228;SDS011;57617;51.988;5.854;2023-03-14T10:12:57;7.72;;;0.80;;
70228;SDS011;57617;51.988;5.854;2023-03-14T10:15:35;5.70;;;0.90;;
70228;SDS011;57617;51.988;5.854;2023-03-14T10:18:02;6.07;;;0.93;;
70228;SDS011;57617;51.988;5.854;2023-03-14T10:20:35;5.07;;;0.63;;
70228;SDS011;57617;51.988;5.854;2023-03-14T10:23:24;10.38;;;1.08;;
70228;SDS011;57617;51.988;5.854;2023-03-14T10:26:05;9.00;;;1.13;;
70228;SDS011;57617;51.988;5.854;2023-03-14T10:28:34;11.73;;;1.38;;
70228;SDS011;57617;51.988;5.854;2023-03-14T10:31:04;9.70;;;1.08;;
70228;SDS011;57617;51.988;5.854;2023-03-14T10:33:30;11.88;;;1.48;;
70228;SDS011;57617;51.988;5.854;2023-03-14T10:36:05;12.30;;;1.58;;
70228;SDS011;57617;51.988;5.854;2023-03-14T10:38:42;10.20;;;1.60;;
70228;SDS011;57617;51.988;5.854;2023-03-14T10:41:41;8.90;;;1.30;;
70228;SDS011;57617;51.988;5.854;2023-03-14T10:43:59;14.25;;;1.70;;
70228;SDS011;57617;51.988;5.854;2023-03-14T10:46:27;12.90;;;1.45;;
70228;SDS011;57617;51.988;5.854;2023-03-14T10:48:55;16.85;;;1.83;;
70228;SDS011;57617;51.988;5.854;2023-03-14T10:56:24;19.83;;;1.70;;
70228;SDS011;57617;51.988;5.854;2023-03-14T10:58:53;13.43;;;2.10;;
70228;SDS011;57617;51.988;5.854;2023-03-14T11:04:10;12.45;;;1.60;;
70228;SDS011;57617;51.988;5.854;2023-03-14T11:09:32;13.77;;;1.85;;
70228;SDS011;57617;51.988;5.854;2023-03-14T11:12:28;7.57;;;1.15;;
70228;SDS011;57617;51.988;5.854;2023-03-14T11:15:09;9.38;;;1.48;;
70228;SDS011;57617;51.988;5.854;2023-03-14T11:18:13;12.50;;;1.45;;
70228;SDS011;57617;51.988;5.854;2023-03-14T11:21:01;9.65;;;1.67;;
70228;SDS011;57617;51.988;5.854;2023-03-14T11:23:49;15.20;;;1.83;;
70228;SDS011;57617;51.988;5.854;2023-03-14T11:29:12;15.43;;;1.90;;
70228;SDS011;57617;51.988;5.854;2023-03-14T11:31:45;10.32;;;1.50;;
70228;SDS011;57617;51.988;5.854;2023-03-14T11:34:28;22.35;;;2.20;;
70228;SDS011;57617;51.988;5.854;2023-03-14T11:37:00;17.55;;;1.80;;
70228;SDS011;57617;51.988;5.854;2023-03-14T11:39:29;18.52;;;1.60;;
70228;SDS011;57617;51.988;5.854;2023-03-14T11:42:03;15.40;;;2.20;;
70228;SDS011;57617;51.988;5.854;2023-03-14T11:44:30;16.70;;;2.25;;
70228;SDS011;57617;51.988;5.854;2023-03-14T11:50:03;9.85;;;1.83;;
70228;SDS011;57617;51.988;5.854;2023-03-14T11:52:41;12.07;;;2.20;;
70228;SDS011;57617;51.988;5.854;2023-03-14T11:55:13;18.80;;;2.13;;
70228;SDS011;57617;51.988;5.854;2023-03-14T11:57:45;11.57;;;1.60;;
70228;SDS011;57617;51.988;5.854;2023-03-14T12:02:45;12.07;;;1.70;;
70228;SDS011;57617;51.988;5.854;2023-03-14T12:10:43;12.25;;;1.70;;
70228;SDS011;57617;51.988;5.854;2023-03-14T12:13:13;10.90;;;1.80;;
70228;SDS011;57617;51.988;5.854;2023-03-14T12:15:41;18.45;;;1.83;;
70228;SDS011;57617;51.988;5.854;2023-03-14T12:18:16;11.90;;;1.45;;
70228;SDS011;57617;51.988;5.854;2023-03-14T12:20:56;13.75;;;1.52;;
70228;SDS011;57617;51.988;5.854;2023-03-14T12:23:23;15.13;;;1.90;;
70228;SDS011;57617;51.988;5.854;2023-03-14T12:28:44;10.93;;;1.20;;
70228;SDS011;57617;51.988;5.854;2023-03-14T12:34:03;13.75;;;1.40;;
70228;SDS011;57617;51.988;5.854;2023-03-14T12:39:34;7.20;;;1.30;;
70228;SDS011;57617;51.988;5.854;2023-03-14T12:44:46;9.05;;;1.13;;
70228;SDS011;57617;51.988;5.854;2023-03-14T12:47:34;15.32;;;1.67;;
70228;SDS011;57617;51.988;5.854;2023-03-14T12:50:07;13.18;;;1.40;;
70228;SDS011;57617;51.988;5.854;2023-03-14T12:52:50;6.35;;;1.10;;
70228;SDS011;57617;51.988;5.854;2023-03-14T12:55:43;9.63;;;1.52;;
70228;SDS011;57617;51.988;5.854;2023-03-14T12:58:21;13.35;;;1.67;;
70228;SDS011;57617;51.988;5.854;2023-03-14T13:00:57;9.13;;;1.27;;
70228;SDS011;57617;51.988;5.854;2023-03-14T13:03:27;13.48;;;1.58;;
70228;SDS011;57617;51.988;5.854;2023-03-14T13:06:04;9.75;;;1.30;;
70228;SDS011;57617;51.988;5.854;2023-03-14T13:08:33;5.85;;;1.00;;
70228;SDS011;57617;51.988;5.854;2023-03-14T13:11:08;8.18;;;1.20;;
70228;SDS011;57617;51.988;5.854;2023-03-14T13:13:40;5.38;;;1.27;;
70228;SDS011;57617;51.988;5.854;2023-03-14T13:16:21;8.82;;;1.20;;
70228;SDS011;57617;51.988;5.854;2023-03-14T13:18:50;6.50;;;1.25;;
70228;SDS011;57617;51.988;5.854;2023-03-14T13:21:26;11.60;;;1.10;;
70228;SDS011;57617;51.988;5.854;2023-03-14T13:23:53;9.52;;;0.98;;
70228;SDS011;57617;51.988;5.854;2023-03-14T13:26:19;6.65;;;1.17;;
70228;SDS011;57617;51.988;5.854;2023-03-14T13:28:45;11.48;;;1.17;;
70228;SDS011;57617;51.988;5.854;2023-03-14T13:31:16;9.32;;;1.20;;
70228;SDS011;57617;51.988;5.854;2023-03-14T13:33:46;8.65;;;1.33;;
70228;SDS011;57617;51.988;5.854;2023-03-14T13:36:11;12.70;;;1.23;;
70228;SDS011;57617;51.988;5.854;2023-03-14T13:38:36;5.93;;;0.80;;
70228;SDS011;57617;51.988;5.854;2023-03-14T13:41:04;9.38;;;1.88;;
70228;SDS011;57617;51.988;5.854;2023-03-14T13:48:30;10.68;;;1.90;;
70228;SDS011;57617;51.988;5.854;2023-03-14T13:51:04;4.53;;;0.60;;
70228;SDS011;57617;51.988;5.854;2023-03-14T13:53:31;7.25;;;0.80;;
70228;SDS011;57617;51.988;5.854;2023-03-14T13:56:08;6.65;;;1.00;;
70228;SDS011;57617;51.988;5.854;2023-03-14T13:58:36;4.55;;;0.82;;
70228;SDS011;57617;51.988;5.854;2023-03-14T14:01:05;9.93;;;0.88;;
70228;SDS011;57617;51.988;5.854;2023-03-14T14:03:36;7.63;;;1.40;;
70228;SDS011;57617;51.988;5.854;2023-03-14T14:06:05;9.32;;;1.20;;
70228;SDS011;57617;51.988;5.854;2023-03-14T14:08:43;10.00;;;1.30;;
70228;SDS011;57617;51.988;5.854;2023-03-14T14:11:10;6.05;;;1.13;;
70228;SDS011;57617;51.988;5.854;2023-03-14T14:13:46;6.80;;;1.10;;
70228;SDS011;57617;51.988;5.854;2023-03-14T14:16:11;6.57;;;1.10;;
70228;SDS011;57617;51.988;5.854;2023-03-14T14:18:37;4.57;;;0.90;;
70228;SDS011;57617;51.988;5.854;2023-03-14T14:21:03;5.75;;;0.88;;
70228;SDS011;57617;51.988;5.854;2023-03-14T14:23:29;7.82;;;1.17;;
70228;SDS011;57617;51.988;5.854;2023-03-14T14:25:57;4.63;;;0.70;;
70228;SDS011;57617;51.988;5.854;2023-03-14T14:31:38;6.25;;;1.13;;
70228;SDS011;57617;51.988;5.854;2023-03-14T14:33:59;6.65;;;0.90;;
70228;SDS011;57617;51.988;5.854;2023-03-14T14:36:39;3.55;;;0.60;;
70228;SDS011;57617;51.988;5.854;2023-03-14T14:39:10;3.88;;;0.93;;
70228;SDS011;57617;51.988;5.854;2023-03-14T14:41:42;6.78;;;0.90;;
70228;SDS011;57617;51.988;5.854;2023-03-14T14:44:10;6.50;;;1.00;;
70228;SDS011;57617;51.988;5.854;2023-03-14T14:46:37;5.88;;;0.68;;
70228;SDS011;57617;51.988;5.854;2023-03-14T14:49:05;7.10;;;1.02;;
70228;SDS011;57617;51.988;5.854;2023-03-14T14:51:38;2.90;;;0.60;;
70228;SDS011;57617;51.988;5.854;2023-03-14T14:54:11;6.25;;;0.80;;
70228;SDS011;57617;51.988;5.854;2023-03-14T14:56:39;4.80;;;0.80;;
70228;SDS011;57617;51.988;5.854;2023-03-14T14:59:06;4.32;;;1.00;;
70228;SDS011;57617;51.988;5.854;2023-03-14T15:01:43;5.72;;;0.75;;
70228;SDS011;57617;51.988;5.854;2023-03-14T15:04:12;6.15;;;0.82;;
70228;SDS011;57617;51.988;5.854;2023-03-14T15:06:40;2.13;;;0.65;;
70228;SDS011;57617;51.988;5.854;2023-03-14T15:09:09;5.55;;;0.80;;
70228;SDS011;57617;51.988;5.854;2023-03-14T15:11:36;9.50;;;1.38;;
70228;SDS011;57617;51.988;5.854;2023-03-14T15:14:01;6.63;;;0.75;;
70228;SDS011;57617;51.988;5.854;2023-03-14T15:16:29;2.95;;;0.88;;
70228;SDS011;57617;51.988;5.854;2023-03-14T15:19:09;5.85;;;1.00;;
70228;SDS011;57617;51.988;5.854;2023-03-14T15:21:41;3.80;;;0.68;;
70228;SDS011;57617;51.988;5.854;2023-03-14T15:24:09;5.07;;;0.70;;
70228;SDS011;57617;51.988;5.854;2023-03-14T15:26:34;5.10;;;0.85;;
70228;SDS011;57617;51.988;5.854;2023-03-14T15:29:00;4.80;;;0.93;;
70228;SDS011;57617;51.988;5.854;2023-03-14T15:31:25;8.77;;;1.40;;
70228;SDS011;57617;51.988;5.854;2023-03-14T15:33:50;7.53;;;0.88;;
70228;SDS011;57617;51.988;5.854;2023-03-14T15:36:19;8.93;;;1.10;;
70228;SDS011;57617;51.988;5.854;2023-03-14T15:38:48;6.05;;;1.02;;
70228;SDS011;57617;51.988;5.854;2023-03-14T15:41:14;12.27;;;1.00;;
70228;SDS011;57617;51.988;5.854;2023-03-14T15:43:40;9.82;;;1.10;;
70228;SDS011;57617;51.988;5.854;2023-03-14T15:46:07;7.18;;;1.17;;